sensor_id;sensor_type;location;lat;lon;timestamp;P1;durP1;ratioP1;P2;durP2;ratioP2
56541;SDS011;42438;53.174;6.730;2023-02-24T00:02:20;11.48;;;2.17;;
56541;SDS011;42438;53.174;6.730;2023-02-24T00:04:51;6.38;;;1.35;;
56541;SDS011;42438;53.174;6.730;2023-02-24T00:07:21;4.15;;;1.60;;
56541;SDS011;42438;53.174;6.730;2023-02-24T00:09:52;4.75;;;1.27;;
56541;SDS011;42438;53.174;6.730;2023-02-24T00:12:23;5.03;;;1.58;;
56541;SDS011;42438;53.174;6.730;2023-02-24T00:14:54;8.65;;;1.52;;
56541;SDS011;42438;53.174;6.730;2023-02-24T00:17:24;7.72;;;1.70;;
56541;SDS011;42438;53.174;6.730;2023-02-24T00:19:56;6.20;;;2.00;;
56541;SDS011;42438;53.174;6.730;2023-02-24T00:22:27;6.80;;;1.80;;
56541;SDS011;42438;53.174;6.730;2023-02-24T00:24:58;9.20;;;2.08;;
56541;SDS011;42438;53.174;6.730;2023-02-24T00:27:32;6.78;;;1.77;;
56541;SDS011;42438;53.174;6.730;2023-02-24T00:30:04;6.18;;;1.75;;
56541;SDS011;42438;53.174;6.730;2023-02-24T00:32:35;5.05;;;1.60;;
56541;SDS011;42438;53.174;6.730;2023-02-24T00:35:06;5.00;;;1.90;;
56541;SDS011;42438;53.174;6.730;2023-02-24T00:37:38;9.05;;;1.65;;
56541;SDS011;42438;53.174;6.730;2023-02-24T00:40:09;8.07;;;1.60;;
56541;SDS011;42438;53.174;6.730;2023-02-24T00:42:41;4.63;;;1.50;;
56541;SDS011;42438;53.174;6.730;2023-02-24T00:45:12;7.90;;;1.63;;
56541;SDS011;42438;53.174;6.730;2023-02-24T00:47:45;5.78;;;1.73;;
56541;SDS011;42438;53.174;6.730;2023-02-24T00:50:16;6.25;;;1.70;;
56541;SDS011;42438;53.174;6.730;2023-02-24T00:52:47;5.47;;;1.70;;
56541;SDS011;42438;53.174;6.730;2023-02-24T00:55:18;6.82;;;1.75;;
56541;SDS011;42438;53.174;6.730;2023-02-24T00:57:51;6.32;;;1.65;;
56541;SDS011;42438;53.174;6.730;2023-02-24T01:00:21;6.43;;;1.92;;
56541;SDS011;42438;53.174;6.730;2023-02-24T01:02:53;5.78;;;1.70;;
56541;SDS011;42438;53.174;6.730;2023-02-24T01:05:23;7.45;;;1.75;;
56541;SDS011;42438;53.174;6.730;2023-02-24T01:07:57;5.97;;;1.55;;
56541;SDS011;42438;53.174;6.730;2023-02-24T01:10:28;8.48;;;1.60;;
56541;SDS011;42438;53.174;6.730;2023-02-24T01:12:59;4.13;;;1.17;;
56541;SDS011;42438;53.174;6.730;2023-02-24T01:15:29;8.85;;;1.80;;
56541;SDS011;42438;53.174;6.730;2023-02-24T01:18:00;6.95;;;1.67;;
56541;SDS011;42438;53.174;6.730;2023-02-24T01:20:31;6.25;;;2.33;;
56541;SDS011;42438;53.174;6.730;2023-02-24T01:23:02;3.95;;;1.50;;
56541;SDS011;42438;53.174;6.730;2023-02-24T01:25:32;8.50;;;1.60;;
56541;SDS011;42438;53.174;6.730;2023-02-24T01:28:03;6.30;;;1.73;;
56541;SDS011;42438;53.174;6.730;2023-02-24T01:30:34;5.95;;;1.40;;
56541;SDS011;42438;53.174;6.730;2023-02-24T01:33:06;3.65;;;1.38;;
56541;SDS011;42438;53.174;6.730;2023-02-24T01:35:36;7.07;;;1.45;;
56541;SDS011;42438;53.174;6.730;2023-02-24T01:38:07;6.53;;;1.67;;
56541;SDS011;42438;53.174;6.730;2023-02-24T01:40:38;9.07;;;1.98;;
56541;SDS011;42438;53.174;6.730;2023-02-24T01:43:09;6.22;;;1.50;;
56541;SDS011;42438;53.174;6.730;2023-02-24T01:45:40;5.25;;;1.40;;
56541;SDS011;42438;53.174;6.730;2023-02-24T01:48:11;7.85;;;1.60;;
56541;SDS011;42438;53.174;6.730;2023-02-24T01:50:42;7.63;;;1.80;;
56541;SDS011;42438;53.174;6.730;2023-02-24T01:53:14;5.70;;;1.53;;
56541;SDS011;42438;53.174;6.730;2023-02-24T01:55:46;3.50;;;1.42;;
56541;SDS011;42438;53.174;6.730;2023-02-24T01:58:23;7.95;;;1.60;;
56541;SDS011;42438;53.174;6.730;2023-02-24T02:00:57;5.50;;;1.70;;
56541;SDS011;42438;53.174;6.730;2023-02-24T02:03:29;7.43;;;1.48;;
56541;SDS011;42438;53.174;6.730;2023-02-24T02:06:05;6.80;;;1.70;;
56541;SDS011;42438;53.174;6.730;2023-02-24T02:08:40;6.97;;;1.70;;
56541;SDS011;42438;53.174;6.730;2023-02-24T02:11:13;5.97;;;1.83;;
56541;SDS011;42438;53.174;6.730;2023-02-24T02:13:49;4.78;;;1.80;;
56541;SDS011;42438;53.174;6.730;2023-02-24T02:27:41;5.33;;;1.77;;
56541;SDS011;42438;53.174;6.730;2023-02-24T02:36:29;6.13;;;1.73;;
56541;SDS011;42438;53.174;6.730;2023-02-24T02:41:52;11.93;;;1.77;;
56541;SDS011;42438;53.174;6.730;2023-02-24T02:47:29;7.53;;;1.83;;
56541;SDS011;42438;53.174;6.730;2023-02-24T02:53:09;7.95;;;1.88;;
56541;SDS011;42438;53.174;6.730;2023-02-24T02:55:45;8.32;;;1.73;;
56541;SDS011;42438;53.174;6.730;2023-02-24T02:58:23;8.45;;;1.75;;
56541;SDS011;42438;53.174;6.730;2023-02-24T03:00:59;5.93;;;1.30;;
56541;SDS011;42438;53.174;6.730;2023-02-24T03:03:33;5.70;;;2.28;;
56541;SDS011;42438;53.174;6.730;2023-02-24T03:06:16;7.72;;;1.65;;
56541;SDS011;42438;53.174;6.730;2023-02-24T03:08:59;5.65;;;1.90;;
56541;SDS011;42438;53.174;6.730;2023-02-24T03:11:41;5.50;;;1.70;;
56541;SDS011;42438;53.174;6.730;2023-02-24T03:14:23;5.53;;;1.52;;
56541;SDS011;42438;53.174;6.730;2023-02-24T03:16:57;6.43;;;1.30;;
56541;SDS011;42438;53.174;6.730;2023-02-24T03:19:31;4.55;;;1.67;;
56541;SDS011;42438;53.174;6.730;2023-02-24T03:22:20;6.88;;;1.40;;
56541;SDS011;42438;53.174;6.730;2023-02-24T03:25:00;6.63;;;1.60;;
56541;SDS011;42438;53.174;6.730;2023-02-24T03:27:36;5.55;;;1.60;;
56541;SDS011;42438;53.174;6.730;2023-02-24T03:30:21;8.90;;;2.13;;
56541;SDS011;42438;53.174;6.730;2023-02-24T03:35:46;5.00;;;1.90;;
56541;SDS011;42438;53.174;6.730;2023-02-24T03:38:20;7.93;;;1.67;;
56541;SDS011;42438;53.174;6.730;2023-02-24T03:40:53;3.28;;;1.35;;
56541;SDS011;42438;53.174;6.730;2023-02-24T03:43:26;5.57;;;1.45;;
56541;SDS011;42438;53.174;6.730;2023-02-24T03:46:01;5.57;;;1.80;;
56541;SDS011;42438;53.174;6.730;2023-02-24T03:48:36;6.22;;;1.58;;
56541;SDS011;42438;53.174;6.730;2023-02-24T03:51:14;5.90;;;2.05;;
56541;SDS011;42438;53.174;6.730;2023-02-24T03:59:37;6.18;;;1.50;;
56541;SDS011;42438;53.174;6.730;2023-02-24T04:02:56;7.20;;;1.60;;
56541;SDS011;42438;53.174;6.730;2023-02-24T04:05:50;8.18;;;1.90;;
56541;SDS011;42438;53.174;6.730;2023-02-24T04:08:47;6.53;;;1.63;;
56541;SDS011;42438;53.174;6.730;2023-02-24T04:11:26;9.20;;;2.33;;
56541;SDS011;42438;53.174;6.730;2023-02-24T04:15:02;4.80;;;1.40;;
56541;SDS011;42438;53.174;6.730;2023-02-24T04:17:20;6.35;;;1.45;;
56541;SDS011;42438;53.174;6.730;2023-02-24T04:19:56;6.15;;;2.10;;
56541;SDS011;42438;53.174;6.730;2023-02-24T04:22:29;8.15;;;1.55;;
56541;SDS011;42438;53.174;6.730;2023-02-24T04:25:02;5.90;;;1.40;;
56541;SDS011;42438;53.174;6.730;2023-02-24T04:30:06;5.93;;;1.42;;
56541;SDS011;42438;53.174;6.730;2023-02-24T04:32:59;9.73;;;1.90;;
56541;SDS011;42438;53.174;6.730;2023-02-24T04:35:30;5.80;;;1.70;;
56541;SDS011;42438;53.174;6.730;2023-02-24T04:38:03;4.30;;;1.52;;
56541;SDS011;42438;53.174;6.730;2023-02-24T04:40:34;6.55;;;1.65;;
56541;SDS011;42438;53.174;6.730;2023-02-24T04:43:05;5.55;;;1.50;;
56541;SDS011;42438;53.174;6.730;2023-02-24T04:45:36;4.20;;;1.67;;
56541;SDS011;42438;53.174;6.730;2023-02-24T04:48:09;6.10;;;1.50;;
56541;SDS011;42438;53.174;6.730;2023-02-24T04:50:43;6.45;;;1.65;;
56541;SDS011;42438;53.174;6.730;2023-02-24T04:53:15;9.55;;;2.00;;
56541;SDS011;42438;53.174;6.730;2023-02-24T04:55:46;6.07;;;2.03;;
56541;SDS011;42438;53.174;6.730;2023-02-24T04:58:18;8.70;;;2.28;;
56541;SDS011;42438;53.174;6.730;2023-02-24T05:00:50;5.63;;;1.98;;
56541;SDS011;42438;53.174;6.730;2023-02-24T05:03:22;9.48;;;1.55;;
56541;SDS011;42438;53.174;6.730;2023-02-24T05:05:57;6.78;;;1.50;;
56541;SDS011;42438;53.174;6.730;2023-02-24T05:08:29;5.78;;;1.65;;
56541;SDS011;42438;53.174;6.730;2023-02-24T05:11:00;6.35;;;1.55;;
56541;SDS011;42438;53.174;6.730;2023-02-24T05:13:33;4.72;;;1.30;;
56541;SDS011;42438;53.174;6.730;2023-02-24T05:16:07;5.53;;;1.52;;
56541;SDS011;42438;53.174;6.730;2023-02-24T05:18:39;5.38;;;1.60;;
56541;SDS011;42438;53.174;6.730;2023-02-24T05:21:13;5.45;;;1.35;;
56541;SDS011;42438;53.174;6.730;2023-02-24T05:24:03;3.13;;;1.20;;
56541;SDS011;42438;53.174;6.730;2023-02-24T05:26:38;5.32;;;1.40;;
56541;SDS011;42438;53.174;6.730;2023-02-24T05:29:12;5.07;;;1.40;;
56541;SDS011;42438;53.174;6.730;2023-02-24T05:31:43;5.55;;;1.50;;
56541;SDS011;42438;53.174;6.730;2023-02-24T05:34:14;5.60;;;1.52;;
56541;SDS011;42438;53.174;6.730;2023-02-24T05:36:46;5.30;;;1.40;;
56541;SDS011;42438;53.174;6.730;2023-02-24T05:39:18;7.82;;;1.60;;
56541;SDS011;42438;53.174;6.730;2023-02-24T05:41:50;4.18;;;1.42;;
56541;SDS011;42438;53.174;6.730;2023-02-24T05:44:24;3.88;;;1.55;;
56541;SDS011;42438;53.174;6.730;2023-02-24T05:46:55;7.05;;;1.50;;
56541;SDS011;42438;53.174;6.730;2023-02-24T05:49:30;7.28;;;1.70;;
56541;SDS011;42438;53.174;6.730;2023-02-24T05:52:04;12.73;;;1.90;;
56541;SDS011;42438;53.174;6.730;2023-02-24T05:54:38;10.05;;;2.22;;
56541;SDS011;42438;53.174;6.730;2023-02-24T05:59:44;12.60;;;2.10;;
56541;SDS011;42438;53.174;6.730;2023-02-24T06:02:15;6.78;;;1.60;;
56541;SDS011;42438;53.174;6.730;2023-02-24T06:04:56;8.90;;;2.10;;
56541;SDS011;42438;53.174;6.730;2023-02-24T06:07:28;5.53;;;1.60;;
56541;SDS011;42438;53.174;6.730;2023-02-24T06:10:03;9.02;;;1.38;;
56541;SDS011;42438;53.174;6.730;2023-02-24T06:12:39;9.88;;;2.00;;
56541;SDS011;42438;53.174;6.730;2023-02-24T06:15:09;5.90;;;1.42;;
56541;SDS011;42438;53.174;6.730;2023-02-24T06:17:40;6.55;;;1.77;;
56541;SDS011;42438;53.174;6.730;2023-02-24T06:20:11;10.93;;;2.13;;
56541;SDS011;42438;53.174;6.730;2023-02-24T06:22:45;10.70;;;2.42;;
56541;SDS011;42438;53.174;6.730;2023-02-24T06:25:16;7.43;;;1.98;;
56541;SDS011;42438;53.174;6.730;2023-02-24T06:27:48;7.40;;;1.88;;
56541;SDS011;42438;53.174;6.730;2023-02-24T06:30:22;8.30;;;1.73;;
56541;SDS011;42438;53.174;6.730;2023-02-24T06:32:54;7.35;;;1.65;;
56541;SDS011;42438;53.174;6.730;2023-02-24T06:35:26;7.45;;;2.17;;
56541;SDS011;42438;53.174;6.730;2023-02-24T06:37:56;10.73;;;2.05;;
56541;SDS011;42438;53.174;6.730;2023-02-24T06:40:27;9.00;;;2.15;;
56541;SDS011;42438;53.174;6.730;2023-02-24T06:42:58;6.43;;;1.80;;
56541;SDS011;42438;53.174;6.730;2023-02-24T06:45:28;7.05;;;2.10;;
56541;SDS011;42438;53.174;6.730;2023-02-24T06:48:01;7.97;;;2.05;;
56541;SDS011;42438;53.174;6.730;2023-02-24T06:50:32;9.45;;;2.25;;
56541;SDS011;42438;53.174;6.730;2023-02-24T06:53:03;7.90;;;2.35;;
56541;SDS011;42438;53.174;6.730;2023-02-24T06:55:38;7.20;;;2.75;;
56541;SDS011;42438;53.174;6.730;2023-02-24T06:58:12;12.95;;;2.38;;
56541;SDS011;42438;53.174;6.730;2023-02-24T07:00:48;10.23;;;2.72;;
56541;SDS011;42438;53.174;6.730;2023-02-24T07:03:28;7.60;;;2.85;;
56541;SDS011;42438;53.174;6.730;2023-02-24T07:06:08;11.85;;;3.05;;
56541;SDS011;42438;53.174;6.730;2023-02-24T07:08:52;9.88;;;2.85;;
56541;SDS011;42438;53.174;6.730;2023-02-24T07:11:24;10.85;;;2.83;;
56541;SDS011;42438;53.174;6.730;2023-02-24T07:13:57;13.00;;;3.58;;
56541;SDS011;42438;53.174;6.730;2023-02-24T07:16:27;11.98;;;3.17;;
56541;SDS011;42438;53.174;6.730;2023-02-24T07:18:59;13.07;;;3.63;;
56541;SDS011;42438;53.174;6.730;2023-02-24T07:21:32;10.63;;;3.42;;
56541;SDS011;42438;53.174;6.730;2023-02-24T07:24:09;11.75;;;4.10;;
56541;SDS011;42438;53.174;6.730;2023-02-24T07:26:43;13.43;;;3.40;;
56541;SDS011;42438;53.174;6.730;2023-02-24T07:29:21;10.85;;;3.45;;
56541;SDS011;42438;53.174;6.730;2023-02-24T07:31:52;9.75;;;3.83;;
56541;SDS011;42438;53.174;6.730;2023-02-24T07:34:23;9.27;;;3.28;;
56541;SDS011;42438;53.174;6.730;2023-02-24T07:36:54;13.00;;;3.97;;
56541;SDS011;42438;53.174;6.730;2023-02-24T07:39:25;11.68;;;3.88;;
56541;SDS011;42438;53.174;6.730;2023-02-24T07:41:56;14.00;;;3.38;;
56541;SDS011;42438;53.174;6.730;2023-02-24T07:44:28;12.38;;;4.35;;
56541;SDS011;42438;53.174;6.730;2023-02-24T07:46:59;13.77;;;4.50;;
56541;SDS011;42438;53.174;6.730;2023-02-24T07:49:30;17.13;;;4.82;;
56541;SDS011;42438;53.174;6.730;2023-02-24T07:52:00;12.38;;;4.22;;
56541;SDS011;42438;53.174;6.730;2023-02-24T07:54:31;8.50;;;3.63;;
56541;SDS011;42438;53.174;6.730;2023-02-24T07:57:04;16.63;;;4.75;;
56541;SDS011;42438;53.174;6.730;2023-02-24T07:59:35;9.60;;;3.60;;
56541;SDS011;42438;53.174;6.730;2023-02-24T08:02:08;16.13;;;4.72;;
56541;SDS011;42438;53.174;6.730;2023-02-24T08:04:40;13.32;;;4.13;;
56541;SDS011;42438;53.174;6.730;2023-02-24T08:07:18;14.65;;;4.63;;
56541;SDS011;42438;53.174;6.730;2023-02-24T08:09:53;16.70;;;4.13;;
56541;SDS011;42438;53.174;6.730;2023-02-24T08:12:40;9.27;;;4.18;;
56541;SDS011;42438;53.174;6.730;2023-02-24T08:15:14;16.83;;;4.60;;
56541;SDS011;42438;53.174;6.730;2023-02-24T08:17:54;13.40;;;4.13;;
56541;SDS011;42438;53.174;6.730;2023-02-24T08:20:29;14.60;;;3.85;;
56541;SDS011;42438;53.174;6.730;2023-02-24T08:23:34;13.15;;;3.92;;
56541;SDS011;42438;53.174;6.730;2023-02-24T08:26:13;13.98;;;4.88;;
56541;SDS011;42438;53.174;6.730;2023-02-24T08:28:44;12.65;;;4.13;;
56541;SDS011;42438;53.174;6.730;2023-02-24T08:31:16;12.80;;;3.92;;
56541;SDS011;42438;53.174;6.730;2023-02-24T08:33:47;14.10;;;3.90;;
56541;SDS011;42438;53.174;6.730;2023-02-24T08:36:18;13.68;;;3.97;;
56541;SDS011;42438;53.174;6.730;2023-02-24T08:38:51;12.68;;;3.88;;
56541;SDS011;42438;53.174;6.730;2023-02-24T08:41:22;10.95;;;3.40;;
56541;SDS011;42438;53.174;6.730;2023-02-24T08:44:12;12.02;;;4.40;;
56541;SDS011;42438;53.174;6.730;2023-02-24T08:46:47;11.40;;;3.55;;
56541;SDS011;42438;53.174;6.730;2023-02-24T08:49:19;12.40;;;4.15;;
56541;SDS011;42438;53.174;6.730;2023-02-24T08:51:53;8.07;;;3.80;;
56541;SDS011;42438;53.174;6.730;2023-02-24T08:54:31;12.35;;;4.68;;
56541;SDS011;42438;53.174;6.730;2023-02-24T08:57:02;12.43;;;4.32;;
56541;SDS011;42438;53.174;6.730;2023-02-24T08:59:39;11.95;;;3.47;;
56541;SDS011;42438;53.174;6.730;2023-02-24T09:02:19;9.70;;;3.85;;
56541;SDS011;42438;53.174;6.730;2023-02-24T09:05:00;10.70;;;3.97;;
56541;SDS011;42438;53.174;6.730;2023-02-24T09:07:35;9.15;;;3.80;;
56541;SDS011;42438;53.174;6.730;2023-02-24T09:10:16;12.27;;;3.90;;
56541;SDS011;42438;53.174;6.730;2023-02-24T09:12:47;9.05;;;3.72;;
56541;SDS011;42438;53.174;6.730;2023-02-24T09:15:18;11.75;;;3.85;;
56541;SDS011;42438;53.174;6.730;2023-02-24T09:20:36;9.85;;;3.28;;
56541;SDS011;42438;53.174;6.730;2023-02-24T09:23:25;9.73;;;3.88;;
56541;SDS011;42438;53.174;6.730;2023-02-24T09:25:58;10.63;;;3.78;;
56541;SDS011;42438;53.174;6.730;2023-02-24T09:28:39;11.85;;;3.72;;
56541;SDS011;42438;53.174;6.730;2023-02-24T09:31:23;6.70;;;3.30;;
56541;SDS011;42438;53.174;6.730;2023-02-24T09:34:09;11.05;;;3.88;;
56541;SDS011;42438;53.174;6.730;2023-02-24T09:36:40;10.80;;;4.32;;
56541;SDS011;42438;53.174;6.730;2023-02-24T09:39:34;8.80;;;3.70;;
56541;SDS011;42438;53.174;6.730;2023-02-24T09:42:26;9.35;;;4.53;;
56541;SDS011;42438;53.174;6.730;2023-02-24T09:45:03;7.90;;;3.55;;
56541;SDS011;42438;53.174;6.730;2023-02-24T09:47:41;9.55;;;3.65;;
56541;SDS011;42438;53.174;6.730;2023-02-24T09:53:15;9.40;;;3.50;;
56541;SDS011;42438;53.174;6.730;2023-02-24T09:55:54;7.75;;;3.58;;
56541;SDS011;42438;53.174;6.730;2023-02-24T10:04:19;9.77;;;4.43;;
56541;SDS011;42438;53.174;6.730;2023-02-24T10:09:32;15.02;;;4.97;;
56541;SDS011;42438;53.174;6.730;2023-02-24T10:17:25;21.55;;;4.25;;
56541;SDS011;42438;53.174;6.730;2023-02-24T10:22:50;17.25;;;3.25;;
56541;SDS011;42438;53.174;6.730;2023-02-24T10:25:33;21.52;;;4.75;;
56541;SDS011;42438;53.174;6.730;2023-02-24T10:34:00;18.33;;;3.70;;
56541;SDS011;42438;53.174;6.730;2023-02-24T10:36:35;19.75;;;4.13;;
56541;SDS011;42438;53.174;6.730;2023-02-24T10:39:17;22.20;;;3.65;;
56541;SDS011;42438;53.174;6.730;2023-02-24T10:41:51;18.17;;;3.92;;
56541;SDS011;42438;53.174;6.730;2023-02-24T10:44:27;17.65;;;3.92;;
56541;SDS011;42438;53.174;6.730;2023-02-24T10:47:06;19.80;;;4.72;;
56541;SDS011;42438;53.174;6.730;2023-02-24T10:49:41;12.95;;;3.75;;
56541;SDS011;42438;53.174;6.730;2023-02-24T10:52:28;11.82;;;3.05;;
56541;SDS011;42438;53.174;6.730;2023-02-24T10:58:31;18.65;;;4.30;;
56541;SDS011;42438;53.174;6.730;2023-02-24T11:01:35;18.63;;;3.78;;
56541;SDS011;42438;53.174;6.730;2023-02-24T11:04:13;26.08;;;4.03;;
56541;SDS011;42438;53.174;6.730;2023-02-24T11:07:03;24.95;;;5.93;;
56541;SDS011;42438;53.174;6.730;2023-02-24T11:09:41;28.50;;;4.63;;
56541;SDS011;42438;53.174;6.730;2023-02-24T11:12:22;13.18;;;3.13;;
56541;SDS011;42438;53.174;6.730;2023-02-24T11:15:25;16.60;;;3.35;;
56541;SDS011;42438;53.174;6.730;2023-02-24T11:18:24;17.05;;;3.42;;
56541;SDS011;42438;53.174;6.730;2023-02-24T11:20:58;13.20;;;4.03;;
56541;SDS011;42438;53.174;6.730;2023-02-24T11:23:40;20.95;;;3.42;;
56541;SDS011;42438;53.174;6.730;2023-02-24T11:32:20;16.27;;;4.60;;
56541;SDS011;42438;53.174;6.730;2023-02-24T11:35:16;17.35;;;4.47;;
56541;SDS011;42438;53.174;6.730;2023-02-24T11:40:40;23.48;;;4.47;;
56541;SDS011;42438;53.174;6.730;2023-02-24T11:43:18;20.95;;;5.60;;
56541;SDS011;42438;53.174;6.730;2023-02-24T11:45:55;21.90;;;5.63;;
56541;SDS011;42438;53.174;6.730;2023-02-24T11:48:40;22.88;;;3.90;;
56541;SDS011;42438;53.174;6.730;2023-02-24T11:51:29;17.38;;;3.65;;
56541;SDS011;42438;53.174;6.730;2023-02-24T11:54:15;10.63;;;2.88;;
56541;SDS011;42438;53.174;6.730;2023-02-24T11:56:49;9.27;;;2.65;;
56541;SDS011;42438;53.174;6.730;2023-02-24T12:05:23;22.45;;;3.38;;
56541;SDS011;42438;53.174;6.730;2023-02-24T12:10:42;8.77;;;2.28;;
56541;SDS011;42438;53.174;6.730;2023-02-24T12:13:21;9.18;;;1.80;;
56541;SDS011;42438;53.174;6.730;2023-02-24T12:16:03;9.63;;;2.05;;
56541;SDS011;42438;53.174;6.730;2023-02-24T12:18:41;7.25;;;2.17;;
56541;SDS011;42438;53.174;6.730;2023-02-24T12:21:22;9.90;;;1.92;;
56541;SDS011;42438;53.174;6.730;2023-02-24T12:23:54;9.15;;;1.88;;
56541;SDS011;42438;53.174;6.730;2023-02-24T12:34:48;9.90;;;3.10;;
56541;SDS011;42438;53.174;6.730;2023-02-24T12:51:45;7.13;;;1.92;;
56541;SDS011;42438;53.174;6.730;2023-02-24T13:11:51;7.38;;;1.02;;
56541;SDS011;42438;53.174;6.730;2023-02-24T13:14:28;2.20;;;0.70;;
56541;SDS011;42438;53.174;6.730;2023-02-24T13:24:54;6.10;;;1.40;;
56541;SDS011;42438;53.174;6.730;2023-02-24T13:27:35;1.48;;;0.60;;
56541;SDS011;42438;53.174;6.730;2023-02-24T13:32:45;5.57;;;1.10;;
56541;SDS011;42438;53.174;6.730;2023-02-24T13:35:29;3.70;;;1.00;;
56541;SDS011;42438;53.174;6.730;2023-02-24T13:38:06;3.90;;;0.73;;
56541;SDS011;42438;53.174;6.730;2023-02-24T13:41:08;4.68;;;1.00;;
56541;SDS011;42438;53.174;6.730;2023-02-24T13:44:46;3.42;;;1.52;;
56541;SDS011;42438;53.174;6.730;2023-02-24T13:47:04;6.00;;;1.27;;
56541;SDS011;42438;53.174;6.730;2023-02-24T13:55:31;6.13;;;1.42;;
56541;SDS011;42438;53.174;6.730;2023-02-24T14:01:12;8.20;;;1.50;;
56541;SDS011;42438;53.174;6.730;2023-02-24T14:04:02;5.25;;;1.98;;
56541;SDS011;42438;53.174;6.730;2023-02-24T14:06:55;7.22;;;1.77;;
56541;SDS011;42438;53.174;6.730;2023-02-24T14:09:31;6.22;;;1.42;;
56541;SDS011;42438;53.174;6.730;2023-02-24T14:12:07;2.72;;;1.05;;
56541;SDS011;42438;53.174;6.730;2023-02-24T14:14:44;6.03;;;1.10;;
56541;SDS011;42438;53.174;6.730;2023-02-24T14:17:27;5.90;;;1.10;;
56541;SDS011;42438;53.174;6.730;2023-02-24T14:22:44;6.70;;;1.10;;
56541;SDS011;42438;53.174;6.730;2023-02-24T14:25:26;2.88;;;1.05;;
56541;SDS011;42438;53.174;6.730;2023-02-24T14:28:04;5.63;;;0.95;;
56541;SDS011;42438;53.174;6.730;2023-02-24T14:30:36;7.85;;;1.52;;
56541;SDS011;42438;53.174;6.730;2023-02-24T14:33:17;7.32;;;1.35;;
56541;SDS011;42438;53.174;6.730;2023-02-24T14:35:55;4.82;;;1.15;;
56541;SDS011;42438;53.174;6.730;2023-02-24T14:38:28;7.47;;;1.50;;
56541;SDS011;42438;53.174;6.730;2023-02-24T14:41:05;12.35;;;1.90;;
56541;SDS011;42438;53.174;6.730;2023-02-24T14:43:46;9.60;;;2.13;;
56541;SDS011;42438;53.174;6.730;2023-02-24T14:46:17;10.48;;;2.70;;
56541;SDS011;42438;53.174;6.730;2023-02-24T14:48:52;9.77;;;1.85;;
56541;SDS011;42438;53.174;6.730;2023-02-24T14:51:25;13.93;;;3.75;;
56541;SDS011;42438;53.174;6.730;2023-02-24T14:54:06;10.88;;;1.85;;
56541;SDS011;42438;53.174;6.730;2023-02-24T14:56:38;7.30;;;1.65;;
56541;SDS011;42438;53.174;6.730;2023-02-24T14:59:14;7.38;;;1.95;;
56541;SDS011;42438;53.174;6.730;2023-02-24T15:01:49;11.27;;;1.83;;
56541;SDS011;42438;53.174;6.730;2023-02-24T15:06:57;13.02;;;2.97;;
56541;SDS011;42438;53.174;6.730;2023-02-24T15:12:07;10.48;;;2.08;;
56541;SDS011;42438;53.174;6.730;2023-02-24T15:14:40;11.35;;;2.25;;
56541;SDS011;42438;53.174;6.730;2023-02-24T15:17:16;15.52;;;2.42;;
56541;SDS011;42438;53.174;6.730;2023-02-24T15:19:49;10.02;;;2.28;;
56541;SDS011;42438;53.174;6.730;2023-02-24T15:22:31;18.33;;;3.22;;
56541;SDS011;42438;53.174;6.730;2023-02-24T15:25:21;9.27;;;2.17;;
56541;SDS011;42438;53.174;6.730;2023-02-24T15:27:56;13.32;;;2.45;;
56541;SDS011;42438;53.174;6.730;2023-02-24T15:30:53;11.02;;;2.50;;
56541;SDS011;42438;53.174;6.730;2023-02-24T15:33:45;12.68;;;1.80;;
56541;SDS011;42438;53.174;6.730;2023-02-24T15:36:26;10.05;;;1.60;;
56541;SDS011;42438;53.174;6.730;2023-02-24T15:39:06;9.57;;;1.80;;
56541;SDS011;42438;53.174;6.730;2023-02-24T15:41:46;9.90;;;1.80;;
56541;SDS011;42438;53.174;6.730;2023-02-24T15:44:24;12.95;;;2.15;;
56541;SDS011;42438;53.174;6.730;2023-02-24T15:46:57;10.30;;;1.67;;
56541;SDS011;42438;53.174;6.730;2023-02-24T15:49:29;9.23;;;2.10;;
56541;SDS011;42438;53.174;6.730;2023-02-24T15:51:59;8.07;;;2.15;;
56541;SDS011;42438;53.174;6.730;2023-02-24T15:54:35;7.35;;;2.28;;
56541;SDS011;42438;53.174;6.730;2023-02-24T15:57:08;9.07;;;1.65;;
56541;SDS011;42438;53.174;6.730;2023-02-24T15:59:41;9.77;;;2.60;;
56541;SDS011;42438;53.174;6.730;2023-02-24T16:02:22;7.68;;;1.35;;
56541;SDS011;42438;53.174;6.730;2023-02-24T16:04:53;4.75;;;1.80;;
56541;SDS011;42438;53.174;6.730;2023-02-24T16:07:26;5.32;;;1.00;;
56541;SDS011;42438;53.174;6.730;2023-02-24T16:09:59;4.28;;;1.10;;
56541;SDS011;42438;53.174;6.730;2023-02-24T16:12:32;4.35;;;1.30;;
56541;SDS011;42438;53.174;6.730;2023-02-24T16:15:06;5.63;;;1.58;;
56541;SDS011;42438;53.174;6.730;2023-02-24T16:17:45;6.25;;;1.33;;
56541;SDS011;42438;53.174;6.730;2023-02-24T16:20:21;15.20;;;2.42;;
56541;SDS011;42438;53.174;6.730;2023-02-24T16:22:56;11.90;;;2.85;;
56541;SDS011;42438;53.174;6.730;2023-02-24T16:25:29;9.13;;;1.57;;
56541;SDS011;42438;53.174;6.730;2023-02-24T16:28:17;9.30;;;2.55;;
56541;SDS011;42438;53.174;6.730;2023-02-24T16:30:50;9.55;;;2.50;;
56541;SDS011;42438;53.174;6.730;2023-02-24T16:33:21;6.95;;;1.58;;
56541;SDS011;42438;53.174;6.730;2023-02-24T16:35:52;9.13;;;1.90;;
56541;SDS011;42438;53.174;6.730;2023-02-24T16:38:23;6.53;;;1.70;;
56541;SDS011;42438;53.174;6.730;2023-02-24T16:40:57;10.35;;;2.10;;
56541;SDS011;42438;53.174;6.730;2023-02-24T16:43:28;11.25;;;2.42;;
56541;SDS011;42438;53.174;6.730;2023-02-24T16:46:00;12.95;;;2.85;;
56541;SDS011;42438;53.174;6.730;2023-02-24T16:48:33;11.68;;;2.28;;
56541;SDS011;42438;53.174;6.730;2023-02-24T16:51:06;9.20;;;1.85;;
56541;SDS011;42438;53.174;6.730;2023-02-24T16:53:37;15.10;;;2.25;;
56541;SDS011;42438;53.174;6.730;2023-02-24T16:56:08;10.35;;;2.10;;
56541;SDS011;42438;53.174;6.730;2023-02-24T16:58:39;9.38;;;2.38;;
56541;SDS011;42438;53.174;6.730;2023-02-24T17:01:12;10.23;;;2.33;;
56541;SDS011;42438;53.174;6.730;2023-02-24T17:03:48;12.38;;;2.50;;
56541;SDS011;42438;53.174;6.730;2023-02-24T17:06:21;13.57;;;3.78;;
56541;SDS011;42438;53.174;6.730;2023-02-24T17:08:53;11.27;;;2.80;;
56541;SDS011;42438;53.174;6.730;2023-02-24T17:11:24;13.77;;;3.33;;
56541;SDS011;42438;53.174;6.730;2023-02-24T17:13:56;9.95;;;1.75;;
56541;SDS011;42438;53.174;6.730;2023-02-24T17:16:27;11.45;;;2.03;;
56541;SDS011;42438;53.174;6.730;2023-02-24T17:18:58;8.85;;;1.85;;
56541;SDS011;42438;53.174;6.730;2023-02-24T17:21:29;11.63;;;1.95;;
56541;SDS011;42438;53.174;6.730;2023-02-24T17:24:00;11.65;;;1.95;;
56541;SDS011;42438;53.174;6.730;2023-02-24T17:26:30;4.90;;;1.52;;
56541;SDS011;42438;53.174;6.730;2023-02-24T17:29:01;9.23;;;2.10;;
56541;SDS011;42438;53.174;6.730;2023-02-24T17:31:32;9.75;;;1.88;;
56541;SDS011;42438;53.174;6.730;2023-02-24T17:34:03;6.82;;;1.60;;
56541;SDS011;42438;53.174;6.730;2023-02-24T17:36:34;7.35;;;1.90;;
56541;SDS011;42438;53.174;6.730;2023-02-24T17:39:05;5.75;;;1.63;;
56541;SDS011;42438;53.174;6.730;2023-02-24T17:41:36;8.07;;;2.42;;
56541;SDS011;42438;53.174;6.730;2023-02-24T17:44:06;8.88;;;1.60;;
56541;SDS011;42438;53.174;6.730;2023-02-24T17:46:37;7.18;;;2.35;;
56541;SDS011;42438;53.174;6.730;2023-02-24T17:49:08;9.05;;;2.17;;
56541;SDS011;42438;53.174;6.730;2023-02-24T17:51:38;9.57;;;1.95;;
56541;SDS011;42438;53.174;6.730;2023-02-24T17:54:09;11.32;;;1.83;;
56541;SDS011;42438;53.174;6.730;2023-02-24T17:56:40;15.43;;;2.97;;
56541;SDS011;42438;53.174;6.730;2023-02-24T17:59:11;16.45;;;2.65;;
56541;SDS011;42438;53.174;6.730;2023-02-24T18:01:41;12.13;;;3.10;;
56541;SDS011;42438;53.174;6.730;2023-02-24T18:04:12;11.05;;;2.53;;
56541;SDS011;42438;53.174;6.730;2023-02-24T18:06:43;14.77;;;2.30;;
56541;SDS011;42438;53.174;6.730;2023-02-24T18:09:14;10.18;;;2.47;;
56541;SDS011;42438;53.174;6.730;2023-02-24T18:11:45;7.97;;;2.22;;